sensor_id;sensor_type;location;lat;lon;timestamp;pressure;altitude;pressure_sealevel;temperature;humidity
85105;BME280;75457;53.198;45.008;2024-03-08T00:01:18;100099.59;;;-1.98;43.70
85105;BME280;75457;53.198;45.008;2024-03-08T00:03:43;100097.78;;;-1.82;43.18
85105;BME280;75457;53.198;45.008;2024-03-08T00:06:09;100095.03;;;-1.58;43.10
85105;BME280;75457;53.198;45.008;2024-03-08T00:08:36;100087.63;;;-1.49;43.51
85105;BME280;75457;53.198;45.008;2024-03-08T00:11:01;100089.09;;;-1.52;43.45
85105;BME280;75457;53.198;45.008;2024-03-08T00:13:27;100086.66;;;-1.29;42.55
85105;BME280;75457;53.198;45.008;2024-03-08T00:15:52;100082.47;;;-1.27;42.79
85105;BME280;75457;53.198;45.008;2024-03-08T00:18:18;100077.41;;;-1.28;42.99
85105;BME280;75457;53.198;45.008;2024-03-08T00:20:43;100074.50;;;-1.35;43.72
85105;BME280;75457;53.198;45.008;2024-03-08T00:23:09;100083.50;;;-1.31;43.35
85105;BME280;75457;53.198;45.008;2024-03-08T00:25:36;100077.41;;;-1.28;43.27
85105;BME280;75457;53.198;45.008;2024-03-08T00:28:01;100076.72;;;-1.25;43.22
85105;BME280;75457;53.198;45.008;2024-03-08T00:30:27;100077.63;;;-1.21;43.04
85105;BME280;75457;53.198;45.008;2024-03-08T00:32:53;100063.41;;;-1.18;43.21
85105;BME280;75457;53.198;45.008;2024-03-08T00:35:18;100070.69;;;-1.34;43.62
85105;BME280;75457;53.198;45.008;2024-03-08T00:37:43;100073.69;;;-1.51;43.85
85105;BME280;75457;53.198;45.008;2024-03-08T00:40:10;100068.16;;;-1.67;44.45
85105;BME280;75457;53.198;45.008;2024-03-08T00:42:37;100064.59;;;-1.71;44.45
85105;BME280;75457;53.198;45.008;2024-03-08T00:45:03;100063.44;;;-1.58;44.47
85105;BME280;75457;53.198;45.008;2024-03-08T00:47:28;100060.00;;;-1.43;43.69
85105;BME280;75457;53.198;45.008;2024-03-08T00:49:54;100055.47;;;-1.27;43.49
85105;BME280;75457;53.198;45.008;2024-03-08T00:52:19;100049.16;;;-1.19;43.38
85105;BME280;75457;53.198;45.008;2024-03-08T00:54:44;100045.69;;;-1.31;43.10
85105;BME280;75457;53.198;45.008;2024-03-08T00:57:10;100046.63;;;-1.39;43.66
85105;BME280;75457;53.198;45.008;2024-03-08T00:59:38;100034.47;;;-1.33;43.77
85105;BME280;75457;53.198;45.008;2024-03-08T01:02:04;100029.47;;;-1.31;43.58
85105;BME280;75457;53.198;45.008;2024-03-08T01:04:29;100031.34;;;-1.20;43.73
85105;BME280;75457;53.198;45.008;2024-03-08T01:06:55;100023.66;;;-0.90;43.03
85105;BME280;75457;53.198;45.008;2024-03-08T01:09:20;100022.63;;;-0.70;42.57
85105;BME280;75457;53.198;45.008;2024-03-08T01:11:46;100012.94;;;-0.87;42.57
85105;BME280;75457;53.198;45.008;2024-03-08T01:14:11;100021.50;;;-1.12;43.20
85105;BME280;75457;53.198;45.008;2024-03-08T01:16:38;100014.16;;;-1.27;43.73
85105;BME280;75457;53.198;45.008;2024-03-08T01:19:04;100023.28;;;-1.59;44.17
85105;BME280;75457;53.198;45.008;2024-03-08T01:21:29;100015.81;;;-1.78;44.09
85105;BME280;75457;53.198;45.008;2024-03-08T01:23:55;100002.66;;;-1.79;44.31
85105;BME280;75457;53.198;45.008;2024-03-08T01:26:20;100006.16;;;-1.91;44.54
85105;BME280;75457;53.198;45.008;2024-03-08T01:28:46;100000.94;;;-1.72;44.18
85105;BME280;75457;53.198;45.008;2024-03-08T01:31:11;99999.50;;;-1.81;44.09
85105;BME280;75457;53.198;45.008;2024-03-08T01:33:38;99989.97;;;-2.03;44.58
85105;BME280;75457;53.198;45.008;2024-03-08T01:36:04;99987.19;;;-2.06;45.45
85105;BME280;75457;53.198;45.008;2024-03-08T01:38:29;99983.44;;;-1.90;45.14
85105;BME280;75457;53.198;45.008;2024-03-08T01:40:55;99985.34;;;-1.90;45.21
85105;BME280;75457;53.198;45.008;2024-03-08T01:43:21;99976.09;;;-1.77;44.30
85105;BME280;75457;53.198;45.008;2024-03-08T01:45:47;99969.78;;;-1.69;44.81
85105;BME280;75457;53.198;45.008;2024-03-08T01:48:13;99971.44;;;-1.65;44.88
85105;BME280;75457;53.198;45.008;2024-03-08T01:50:41;99958.09;;;-1.46;44.41
85105;BME280;75457;53.198;45.008;2024-03-08T01:53:07;99966.09;;;-1.49;44.18
85105;BME280;75457;53.198;45.008;2024-03-08T01:55:34;99961.63;;;-1.57;44.43
85105;BME280;75457;53.198;45.008;2024-03-08T01:57:59;99960.03;;;-1.58;44.95
85105;BME280;75457;53.198;45.008;2024-03-08T02:00:25;99963.00;;;-1.63;44.82
85105;BME280;75457;53.198;45.008;2024-03-08T02:02:53;99952.88;;;-1.66;45.18
85105;BME280;75457;53.198;45.008;2024-03-08T02:05:19;99950.97;;;-1.66;45.06
85105;BME280;75457;53.198;45.008;2024-03-08T02:07:47;99946.59;;;-1.70;45.16
85105;BME280;75457;53.198;45.008;2024-03-08T02:10:12;99950.47;;;-1.56;45.37
85105;BME280;75457;53.198;45.008;2024-03-08T02:12:38;99947.63;;;-1.47;45.17
85105;BME280;75457;53.198;45.008;2024-03-08T02:15:07;99936.19;;;-1.56;44.70
85105;BME280;75457;53.198;45.008;2024-03-08T02:17:33;99945.53;;;-1.54;44.86
85105;BME280;75457;53.198;45.008;2024-03-08T02:19:59;99932.59;;;-1.33;44.54
85105;BME280;75457;53.198;45.008;2024-03-08T02:22:25;99933.91;;;-1.27;43.66
85105;BME280;75457;53.198;45.008;2024-03-08T02:24:51;99937.47;;;-1.38;43.80
85105;BME280;75457;53.198;45.008;2024-03-08T02:27:23;99929.47;;;-1.19;43.14
85105;BME280;75457;53.198;45.008;2024-03-08T02:29:49;99936.69;;;-1.08;42.44
85105;BME280;75457;53.198;45.008;2024-03-08T02:32:14;99941.44;;;-1.05;42.90
85105;BME280;75457;53.198;45.008;2024-03-08T02:34:40;99933.50;;;-0.98;42.59
85105;BME280;75457;53.198;45.008;2024-03-08T02:37:06;99936.19;;;-0.98;41.68
85105;BME280;75457;53.198;45.008;2024-03-08T02:39:33;99929.47;;;-1.19;42.83
85105;BME280;75457;53.198;45.008;2024-03-08T02:41:58;99919.69;;;-1.39;43.19
85105;BME280;75457;53.198;45.008;2024-03-08T02:44:24;99914.91;;;-1.30;42.67
85105;BME280;75457;53.198;45.008;2024-03-08T02:46:49;99916.03;;;-1.31;42.80
85105;BME280;75457;53.198;45.008;2024-03-08T02:49:15;99919.34;;;-1.65;43.17
85105;BME280;75457;53.198;45.008;2024-03-08T02:51:40;99907.94;;;-1.74;43.02
85105;BME280;75457;53.198;45.008;2024-03-08T02:54:06;99905.00;;;-1.69;42.64
85105;BME280;75457;53.198;45.008;2024-03-08T02:56:33;99907.13;;;-1.47;42.53
85105;BME280;75457;53.198;45.008;2024-03-08T02:58:58;99910.38;;;-1.42;42.73
85105;BME280;75457;53.198;45.008;2024-03-08T03:01:24;99896.31;;;-1.47;42.40
85105;BME280;75457;53.198;45.008;2024-03-08T03:03:49;99900.41;;;-1.53;42.41
85105;BME280;75457;53.198;45.008;2024-03-08T03:06:15;99902.84;;;-1.48;42.74
85105;BME280;75457;53.198;45.008;2024-03-08T03:08:40;99901.53;;;-1.54;42.40
85105;BME280;75457;53.198;45.008;2024-03-08T03:11:06;99898.22;;;-1.63;43.08
85105;BME280;75457;53.198;45.008;2024-03-08T03:13:33;99887.56;;;-1.72;43.36
85105;BME280;75457;53.198;45.008;2024-03-08T03:15:58;99883.25;;;-1.88;43.71
85105;BME280;75457;53.198;45.008;2024-03-08T03:18:24;99882.75;;;-2.06;44.24
85105;BME280;75457;53.198;45.008;2024-03-08T03:20:51;99871.81;;;-1.97;43.67
85105;BME280;75457;53.198;45.008;2024-03-08T03:23:16;99869.03;;;-1.73;43.76
85105;BME280;75457;53.198;45.008;2024-03-08T03:25:42;99873.72;;;-1.55;43.02
85105;BME280;75457;53.198;45.008;2024-03-08T03:28:07;99871.84;;;-1.39;42.20
85105;BME280;75457;53.198;45.008;2024-03-08T03:30:35;99856.59;;;-1.31;41.97
85105;BME280;75457;53.198;45.008;2024-03-08T03:33:01;99859.03;;;-1.57;42.86
85105;BME280;75457;53.198;45.008;2024-03-08T03:35:26;99845.69;;;-1.66;43.40
85105;BME280;75457;53.198;45.008;2024-03-08T03:37:52;99852.94;;;-1.54;42.96
85105;BME280;75457;53.198;45.008;2024-03-08T03:40:18;99856.69;;;-1.43;42.67
85105;BME280;75457;53.198;45.008;2024-03-08T03:42:43;99850.25;;;-1.39;42.84
85105;BME280;75457;53.198;45.008;2024-03-08T03:45:09;99849.03;;;-1.26;42.47
85105;BME280;75457;53.198;45.008;2024-03-08T03:47:36;99844.50;;;-1.22;42.66
85105;BME280;75457;53.198;45.008;2024-03-08T03:50:01;99829.09;;;-1.21;42.67
85105;BME280;75457;53.198;45.008;2024-03-08T03:52:27;99830.13;;;-1.41;43.48
85105;BME280;75457;53.198;45.008;2024-03-08T03:54:52;99842.47;;;-1.40;43.41
85105;BME280;75457;53.198;45.008;2024-03-08T03:57:18;99826.88;;;-1.16;43.02
85105;BME280;75457;53.198;45.008;2024-03-08T03:59:43;99823.47;;;-0.97;43.15
85105;BME280;75457;53.198;45.008;2024-03-08T04:02:09;99821.25;;;-0.76;42.33
85105;BME280;75457;53.198;45.008;2024-03-08T04:04:36;99820.44;;;-0.61;42.26
85105;BME280;75457;53.198;45.008;2024-03-08T04:07:02;99826.34;;;-0.56;41.81
85105;BME280;75457;53.198;45.008;2024-03-08T04:09:27;99811.75;;;-0.51;41.87
85105;BME280;75457;53.198;45.008;2024-03-08T04:11:52;99816.81;;;-0.50;41.57
85105;BME280;75457;53.198;45.008;2024-03-08T04:14:18;99807.91;;;-0.50;41.78
85105;BME280;75457;53.198;45.008;2024-03-08T04:16:44;99810.50;;;-0.38;41.36
85105;BME280;75457;53.198;45.008;2024-03-08T04:19:09;99812.59;;;-0.47;41.48
85105;BME280;75457;53.198;45.008;2024-03-08T04:21:36;99811.66;;;-0.74;41.79
85105;BME280;75457;53.198;45.008;2024-03-08T04:24:02;99804.81;;;-0.68;41.94
85105;BME280;75457;53.198;45.008;2024-03-08T04:26:27;99799.94;;;-0.43;41.56
85105;BME280;75457;53.198;45.008;2024-03-08T04:28:53;99790.97;;;-0.28;41.52
85105;BME280;75457;53.198;45.008;2024-03-08T04:31:18;99783.03;;;-0.18;41.25
85105;BME280;75457;53.198;45.008;2024-03-08T04:33:43;99774.72;;;-0.10;41.26
85105;BME280;75457;53.198;45.008;2024-03-08T04:36:09;99782.81;;;-0.10;41.11
85105;BME280;75457;53.198;45.008;2024-03-08T04:38:36;99781.03;;;-0.02;41.36
85105;BME280;75457;53.198;45.008;2024-03-08T04:41:01;99784.09;;;-0.04;41.25
85105;BME280;75457;53.198;45.008;2024-03-08T04:43:27;99787.72;;;0.04;41.23
85105;BME280;75457;53.198;45.008;2024-03-08T04:45:53;99787.16;;;0.14;41.22
85105;BME280;75457;53.198;45.008;2024-03-08T04:48:18;99791.91;;;0.20;41.18
85105;BME280;75457;53.198;45.008;2024-03-08T04:50:44;99784.91;;;0.19;41.11
85105;BME280;75457;53.198;45.008;2024-03-08T04:53:09;99780.47;;;0.30;41.22
85105;BME280;75457;53.198;45.008;2024-03-08T04:55:36;99789.75;;;0.29;40.96
85105;BME280;75457;53.198;45.008;2024-03-08T04:58:02;99779.03;;;0.36;40.64
85105;BME280;75457;53.198;45.008;2024-03-08T05:00:27;99780.00;;;0.47;40.88
85105;BME280;75457;53.198;45.008;2024-03-08T05:02:53;99777.19;;;0.40;40.63
85105;BME280;75457;53.198;45.008;2024-03-08T05:05:18;99778.44;;;0.46;40.79
85105;BME280;75457;53.198;45.008;2024-03-08T05:07:44;99775.38;;;0.48;40.60
85105;BME280;75457;53.198;45.008;2024-03-08T05:10:09;99776.19;;;0.52;40.75
85105;BME280;75457;53.198;45.008;2024-03-08T05:12:36;99770.44;;;0.53;40.57
85105;BME280;75457;53.198;45.008;2024-03-08T05:15:02;99765.47;;;0.59;40.29
85105;BME280;75457;53.198;45.008;2024-03-08T05:17:27;99757.34;;;0.81;40.29
85105;BME280;75457;53.198;45.008;2024-03-08T05:19:53;99755.81;;;0.84;40.63
85105;BME280;75457;53.198;45.008;2024-03-08T05:22:18;99757.03;;;0.64;40.72
85105;BME280;75457;53.198;45.008;2024-03-08T05:24:44;99753.63;;;0.67;41.09
85105;BME280;75457;53.198;45.008;2024-03-08T05:27:09;99744.06;;;1.02;40.67
85105;BME280;75457;53.198;45.008;2024-03-08T05:29:36;99735.00;;;1.17;40.82
85105;BME280;75457;53.198;45.008;2024-03-08T05:32:02;99732.13;;;1.36;40.51
85105;BME280;75457;53.198;45.008;2024-03-08T05:34:27;99731.38;;;1.39;40.86
85105;BME280;75457;53.198;45.008;2024-03-08T05:36:53;99743.81;;;1.40;40.77
85105;BME280;75457;53.198;45.008;2024-03-08T05:39:18;99725.69;;;1.48;40.19
85105;BME280;75457;53.198;45.008;2024-03-08T05:41:44;99736.53;;;1.48;40.74
85105;BME280;75457;53.198;45.008;2024-03-08T05:44:09;99738.19;;;1.56;40.94
85105;BME280;75457;53.198;45.008;2024-03-08T05:46:37;99729.00;;;1.67;40.28
85105;BME280;75457;53.198;45.008;2024-03-08T05:49:03;99727.53;;;1.73;39.38
85105;BME280;75457;53.198;45.008;2024-03-08T05:51:28;99727.56;;;1.77;39.79
85105;BME280;75457;53.198;45.008;2024-03-08T05:53:54;99727.78;;;1.94;39.46
85105;BME280;75457;53.198;45.008;2024-03-08T05:56:19;99727.50;;;2.06;40.09
85105;BME280;75457;53.198;45.008;2024-03-08T05:58:45;99727.16;;;2.11;40.43
85105;BME280;75457;53.198;45.008;2024-03-08T06:01:10;99724.88;;;2.17;39.63
85105;BME280;75457;53.198;45.008;2024-03-08T06:03:37;99719.13;;;2.25;39.42
85105;BME280;75457;53.198;45.008;2024-03-08T06:06:03;99709.13;;;2.33;39.57
85105;BME280;75457;53.198;45.008;2024-03-08T06:08:29;99705.25;;;2.34;39.84
85105;BME280;75457;53.198;45.008;2024-03-08T06:10:54;99707.19;;;2.37;39.73
85105;BME280;75457;53.198;45.008;2024-03-08T06:13:20;99706.53;;;2.50;38.97
85105;BME280;75457;53.198;45.008;2024-03-08T06:15:45;99698.88;;;2.66;38.36
85105;BME280;75457;53.198;45.008;2024-03-08T06:18:11;99695.75;;;2.64;38.54
85105;BME280;75457;53.198;45.008;2024-03-08T06:20:38;99688.94;;;2.88;38.68
85105;BME280;75457;53.198;45.008;2024-03-08T06:23:04;99689.75;;;2.95;39.34
85105;BME280;75457;53.198;45.008;2024-03-08T06:25:29;99687.84;;;3.06;38.55
85105;BME280;75457;53.198;45.008;2024-03-08T06:27:55;99681.28;;;3.11;38.16
85105;BME280;75457;53.198;45.008;2024-03-08T06:30:20;99687.09;;;3.09;38.50
85105;BME280;75457;53.198;45.008;2024-03-08T06:32:46;99684.34;;;3.02;38.61
85105;BME280;75457;53.198;45.008;2024-03-08T06:35:11;99678.53;;;3.07;38.96
85105;BME280;75457;53.198;45.008;2024-03-08T06:37:38;99667.34;;;3.26;38.78
85105;BME280;75457;53.198;45.008;2024-03-08T06:40:05;99669.00;;;3.55;37.37
85105;BME280;75457;53.198;45.008;2024-03-08T06:42:31;99673.66;;;3.48;37.74
85105;BME280;75457;53.198;45.008;2024-03-08T06:44:56;99664.34;;;3.56;38.32
85105;BME280;75457;53.198;45.008;2024-03-08T06:47:22;99669.03;;;3.62;37.56
85105;BME280;75457;53.198;45.008;2024-03-08T06:49:47;99662.84;;;3.83;38.26
85105;BME280;75457;53.198;45.008;2024-03-08T06:52:13;99656.25;;;3.91;38.16
85105;BME280;75457;53.198;45.008;2024-03-08T06:54:40;99650.78;;;3.80;37.72
85105;BME280;75457;53.198;45.008;2024-03-08T06:57:05;99648.44;;;3.79;37.50
85105;BME280;75457;53.198;45.008;2024-03-08T06:59:31;99646.50;;;3.86;37.01
85105;BME280;75457;53.198;45.008;2024-03-08T07:01:56;99652.75;;;3.97;37.83
85105;BME280;75457;53.198;45.008;2024-03-08T07:04:22;99644.97;;;4.06;37.05
85105;BME280;75457;53.198;45.008;2024-03-08T07:06:48;99628.63;;;4.20;36.63
85105;BME280;75457;53.198;45.008;2024-03-08T07:09:13;99632.53;;;4.33;37.21
85105;BME280;75457;53.198;45.008;2024-03-08T07:11:40;99631.72;;;4.29;36.49
85105;BME280;75457;53.198;45.008;2024-03-08T07:14:06;99620.84;;;4.22;37.33
85105;BME280;75457;53.198;45.008;2024-03-08T07:16:31;99615.78;;;4.10;36.59
85105;BME280;75457;53.198;45.008;2024-03-08T07:18:57;99618.13;;;4.05;37.15
85105;BME280;75457;53.198;45.008;2024-03-08T07:21:22;99611.50;;;4.09;36.63
85105;BME280;75457;53.198;45.008;2024-03-08T07:23:48;99609.16;;;4.18;37.23
85105;BME280;75457;53.198;45.008;2024-03-08T07:26:15;99606.03;;;4.16;36.51
85105;BME280;75457;53.198;45.008;2024-03-08T07:28:42;99607.19;;;4.01;37.39
85105;BME280;75457;53.198;45.008;2024-03-08T07:31:07;99594.75;;;3.86;37.56
85105;BME280;75457;53.198;45.008;2024-03-08T07:33:33;99592.78;;;3.66;37.04
85105;BME280;75457;53.198;45.008;2024-03-08T07:35:59;99600.59;;;3.74;38.06
85105;BME280;75457;53.198;45.008;2024-03-08T07:38:24;99590.44;;;3.68;38.11
85105;BME280;75457;53.198;45.008;2024-03-08T07:40:50;99593.97;;;3.89;37.01
85105;BME280;75457;53.198;45.008;2024-03-08T07:43:15;99590.47;;;4.13;37.38
85105;BME280;75457;53.198;45.008;2024-03-08T07:45:42;99583.47;;;4.26;36.76
85105;BME280;75457;53.198;45.008;2024-03-08T07:48:08;99587.75;;;4.20;36.94
85105;BME280;75457;53.198;45.008;2024-03-08T07:50:33;99590.84;;;4.22;37.08
85105;BME280;75457;53.198;45.008;2024-03-08T07:52:59;99587.72;;;4.34;36.82
85105;BME280;75457;53.198;45.008;2024-03-08T07:55:24;99579.16;;;4.43;36.66
85105;BME280;75457;53.198;45.008;2024-03-08T07:57:50;99569.00;;;4.50;36.58
85105;BME280;75457;53.198;45.008;2024-03-08T08:00:17;99572.91;;;4.42;36.25
85105;BME280;75457;53.198;45.008;2024-03-08T08:02:44;99577.97;;;4.47;36.37
85105;BME280;75457;53.198;45.008;2024-03-08T08:05:09;99573.25;;;4.58;36.40
85105;BME280;75457;53.198;45.008;2024-03-08T08:07:35;99572.50;;;4.47;36.65
85105;BME280;75457;53.198;45.008;2024-03-08T08:10:01;99576.44;;;4.39;36.67
85105;BME280;75457;53.198;45.008;2024-03-08T08:12:26;99572.47;;;4.54;36.40
85105;BME280;75457;53.198;45.008;2024-03-08T08:14:52;99568.19;;;4.67;36.00
85105;BME280;75457;53.198;45.008;2024-03-08T08:17:17;99567.75;;;4.72;35.92
85105;BME280;75457;53.198;45.008;2024-03-08T08:19:44;99569.75;;;4.65;35.81
85105;BME280;75457;53.198;45.008;2024-03-08T08:22:10;99557.31;;;4.46;36.34
85105;BME280;75457;53.198;45.008;2024-03-08T08:24:35;99557.34;;;4.22;36.30
85105;BME280;75457;53.198;45.008;2024-03-08T08:27:01;99568.59;;;4.48;36.71
85105;BME280;75457;53.198;45.008;2024-03-08T08:29:27;99558.84;;;4.51;36.81
85105;BME280;75457;53.198;45.008;2024-03-08T08:31:52;99564.72;;;4.56;36.13
85105;BME280;75457;53.198;45.008;2024-03-08T08:34:18;99547.63;;;4.38;37.03
85105;BME280;75457;53.198;45.008;2024-03-08T08:36:45;99541.72;;;4.57;36.55
85105;BME280;75457;53.198;45.008;2024-03-08T08:39:10;99542.47;;;4.65;36.79
85105;BME280;75457;53.198;45.008;2024-03-08T08:41:36;99537.41;;;4.60;36.58
85105;BME280;75457;53.198;45.008;2024-03-08T08:44:02;99528.69;;;4.96;37.11
85105;BME280;75457;53.198;45.008;2024-03-08T08:46:27;99525.34;;;5.36;36.37
85105;BME280;75457;53.198;45.008;2024-03-08T08:48:53;99523.91;;;5.72;36.39
85105;BME280;75457;53.198;45.008;2024-03-08T08:51:20;99510.13;;;5.90;36.35
85105;BME280;75457;53.198;45.008;2024-03-08T08:53:47;99499.25;;;6.23;35.80
85105;BME280;75457;53.198;45.008;2024-03-08T08:56:13;99509.00;;;6.24;36.14
85105;BME280;75457;53.198;45.008;2024-03-08T08:58:39;99509.69;;;6.35;35.84
85105;BME280;75457;53.198;45.008;2024-03-08T09:01:05;99503.88;;;6.30;35.38
85105;BME280;75457;53.198;45.008;2024-03-08T09:03:30;99497.34;;;6.54;35.64
85105;BME280;75457;53.198;45.008;2024-03-08T09:05:56;99495.91;;;6.76;35.08
85105;BME280;75457;53.198;45.008;2024-03-08T09:08:21;99486.25;;;7.24;34.20
85105;BME280;75457;53.198;45.008;2024-03-08T09:10:48;99476.09;;;7.48;34.59
85105;BME280;75457;53.198;45.008;2024-03-08T09:13:14;99476.78;;;7.78;34.02
85105;BME280;75457;53.198;45.008;2024-03-08T09:15:39;99480.19;;;7.86;33.54
85105;BME280;75457;53.198;45.008;2024-03-08T09:18:05;99469.22;;;7.86;33.59
85105;BME280;75457;53.198;45.008;2024-03-08T09:20:31;99464.31;;;7.97;33.34
85105;BME280;75457;53.198;45.008;2024-03-08T09:22:56;99471.31;;;8.01;33.52
85105;BME280;75457;53.198;45.008;2024-03-08T09:25:22;99474.72;;;7.86;32.95
85105;BME280;75457;53.198;45.008;2024-03-08T09:27:49;99467.31;;;7.60;32.85
85105;BME280;75457;53.198;45.008;2024-03-08T09:30:15;99477.97;;;7.01;33.86
85105;BME280;75457;53.198;45.008;2024-03-08T09:32:41;99464.06;;;7.15;33.49
85105;BME280;75457;53.198;45.008;2024-03-08T09:35:07;99462.13;;;7.42;34.07
85105;BME280;75457;53.198;45.008;2024-03-08T09:37:33;99457.47;;;7.85;32.94
85105;BME280;75457;53.198;45.008;2024-03-08T09:39:59;99461.09;;;8.02;33.02
85105;BME280;75457;53.198;45.008;2024-03-08T09:42:24;99442.94;;;7.65;33.01
85105;BME280;75457;53.198;45.008;2024-03-08T09:44:51;99450.66;;;7.24;33.41
85105;BME280;75457;53.198;45.008;2024-03-08T09:47:17;99453.34;;;7.01;33.39
85105;BME280;75457;53.198;45.008;2024-03-08T09:49:43;99447.22;;;6.90;33.88
85105;BME280;75457;53.198;45.008;2024-03-08T09:52:09;99446.50;;;6.86;34.40
85105;BME280;75457;53.198;45.008;2024-03-08T09:54:35;99429.56;;;7.21;33.97
85105;BME280;75457;53.198;45.008;2024-03-08T09:57:03;99438.38;;;7.32;34.33
85105;BME280;75457;53.198;45.008;2024-03-08T09:59:29;99439.69;;;7.24;33.51
85105;BME280;75457;53.198;45.008;2024-03-08T10:01:56;99420.72;;;7.10;34.06
85105;BME280;75457;53.198;45.008;2024-03-08T10:04:22;99418.81;;;7.07;34.02
85105;BME280;75457;53.198;45.008;2024-03-08T10:06:48;99419.00;;;6.97;34.33
85105;BME280;75457;53.198;45.008;2024-03-08T10:09:13;99417.28;;;6.80;35.08
85105;BME280;75457;53.198;45.008;2024-03-08T10:11:39;99411.66;;;6.90;35.28
85105;BME280;75457;53.198;45.008;2024-03-08T10:14:05;99409.69;;;7.17;35.28
85105;BME280;75457;53.198;45.008;2024-03-08T10:16:31;99412.88;;;7.39;34.31
85105;BME280;75457;53.198;45.008;2024-03-08T10:18:58;99401.78;;;7.46;34.03
85105;BME280;75457;53.198;45.008;2024-03-08T10:21:23;99406.34;;;7.52;34.81
85105;BME280;75457;53.198;45.008;2024-03-08T10:23:50;99403.53;;;7.56;34.07
85105;BME280;75457;53.198;45.008;2024-03-08T10:26:16;99391.63;;;7.66;34.05
85105;BME280;75457;53.198;45.008;2024-03-08T10:28:42;99402.06;;;7.51;34.10
85105;BME280;75457;53.198;45.008;2024-03-08T10:31:07;99384.44;;;7.52;33.81
85105;BME280;75457;53.198;45.008;2024-03-08T10:33:33;99393.19;;;7.44;34.08
85105;BME280;75457;53.198;45.008;2024-03-08T10:36:00;99390.88;;;7.42;33.73
85105;BME280;75457;53.198;45.008;2024-03-08T10:38:26;99388.97;;;7.39;33.94
85105;BME280;75457;53.198;45.008;2024-03-08T10:40:55;99389.53;;;7.73;34.05
85105;BME280;75457;53.198;45.008;2024-03-08T10:43:23;99381.06;;;7.87;33.67
85105;BME280;75457;53.198;45.008;2024-03-08T10:45:52;99373.88;;;7.93;33.49
85105;BME280;75457;53.198;45.008;2024-03-08T10:48:27;99386.81;;;7.73;34.25
85105;BME280;75457;53.198;45.008;2024-03-08T10:50:53;99379.38;;;7.51;34.72
85105;BME280;75457;53.198;45.008;2024-03-08T10:53:23;99376.94;;;7.33;33.90
85105;BME280;75457;53.198;45.008;2024-03-08T10:55:49;99376.75;;;7.21;34.31
85105;BME280;75457;53.198;45.008;2024-03-08T10:58:16;99377.78;;;7.30;34.90
85105;BME280;75457;53.198;45.008;2024-03-08T11:00:42;99382.53;;;7.72;33.69
85105;BME280;75457;53.198;45.008;2024-03-08T11:03:43;99381.44;;;8.28;32.99
85105;BME280;75457;53.198;45.008;2024-03-08T11:06:13;99373.84;;;8.36;33.43
85105;BME280;75457;53.198;45.008;2024-03-08T11:08:43;99394.72;;;8.10;32.87
85105;BME280;75457;53.198;45.008;2024-03-08T11:11:24;99379.03;;;7.91;33.93
85105;BME280;75457;53.198;45.008;2024-03-08T11:13:50;99377.00;;;7.95;33.55
85105;BME280;75457;53.198;45.008;2024-03-08T11:16:37;99373.53;;;7.91;33.75
85105;BME280;75457;53.198;45.008;2024-03-08T11:19:06;99370.63;;;7.79;33.19
85105;BME280;75457;53.198;45.008;2024-03-08T11:21:32;99373.06;;;7.96;33.65
85105;BME280;75457;53.198;45.008;2024-03-08T11:24:00;99379.97;;;8.43;32.96
85105;BME280;75457;53.198;45.008;2024-03-08T11:26:26;99384.41;;;8.72;32.52
85105;BME280;75457;53.198;45.008;2024-03-08T11:28:52;99382.22;;;8.83;33.14
85105;BME280;75457;53.198;45.008;2024-03-08T11:31:25;99374.25;;;9.05;32.51
85105;BME280;75457;53.198;45.008;2024-03-08T11:33:50;99370.13;;;9.45;32.28
85105;BME280;75457;53.198;45.008;2024-03-08T11:36:20;99371.16;;;9.51;32.28
85105;BME280;75457;53.198;45.008;2024-03-08T11:38:46;99368.22;;;9.58;32.13
85105;BME280;75457;53.198;45.008;2024-03-08T11:41:13;99362.56;;;9.49;31.41
85105;BME280;75457;53.198;45.008;2024-03-08T11:43:39;99359.47;;;9.91;31.39
85105;BME280;75457;53.198;45.008;2024-03-08T11:46:07;99370.72;;;9.97;31.46
85105;BME280;75457;53.198;45.008;2024-03-08T11:48:33;99368.75;;;9.53;31.57
85105;BME280;75457;53.198;45.008;2024-03-08T11:50:59;99377.88;;;9.50;30.91
85105;BME280;75457;53.198;45.008;2024-03-08T11:53:25;99374.94;;;9.41;31.53
85105;BME280;75457;53.198;45.008;2024-03-08T11:55:51;99376.03;;;9.59;31.77
85105;BME280;75457;53.198;45.008;2024-03-08T11:58:18;99364.47;;;9.80;30.75
85105;BME280;75457;53.198;45.008;2024-03-08T12:00:43;99366.06;;;10.10;31.45
85105;BME280;75457;53.198;45.008;2024-03-08T12:03:09;99355.91;;;9.78;31.39
85105;BME280;75457;53.198;45.008;2024-03-08T12:05:35;99350.69;;;9.68;31.37
85105;BME280;75457;53.198;45.008;2024-03-08T12:08:02;99350.69;;;9.68;31.27
85105;BME280;75457;53.198;45.008;2024-03-08T12:10:27;99364.94;;;9.63;31.47
85105;BME280;75457;53.198;45.008;2024-03-08T12:12:54;99369.75;;;9.59;31.70
85105;BME280;75457;53.198;45.008;2024-03-08T12:15:23;99390.06;;;9.17;31.30
85105;BME280;75457;53.198;45.008;2024-03-08T12:17:50;99379.53;;;8.80;31.78
85105;BME280;75457;53.198;45.008;2024-03-08T12:20:18;99371.16;;;8.52;32.52
85105;BME280;75457;53.198;45.008;2024-03-08T12:22:44;99367.47;;;8.58;32.59
85105;BME280;75457;53.198;45.008;2024-03-08T12:25:12;99376.84;;;8.60;32.53
85105;BME280;75457;53.198;45.008;2024-03-08T12:27:37;99369.53;;;8.15;33.40
85105;BME280;75457;53.198;45.008;2024-03-08T12:30:16;99362.94;;;8.13;32.73
85105;BME280;75457;53.198;45.008;2024-03-08T12:32:48;99366.38;;;7.97;32.96
85105;BME280;75457;53.198;45.008;2024-03-08T12:35:14;99363.22;;;7.99;33.26
85105;BME280;75457;53.198;45.008;2024-03-08T12:37:40;99350.34;;;8.15;33.24
85105;BME280;75457;53.198;45.008;2024-03-08T12:40:08;99344.78;;;8.18;33.90
85105;BME280;75457;53.198;45.008;2024-03-08T12:42:34;99344.34;;;7.81;34.01
85105;BME280;75457;53.198;45.008;2024-03-08T12:44:59;99337.81;;;7.95;33.94
85105;BME280;75457;53.198;45.008;2024-03-08T12:47:25;99345.69;;;7.73;33.95
85105;BME280;75457;53.198;45.008;2024-03-08T12:49:52;99344.09;;;7.53;34.36